Time;durP1;ratioP1;P1;durP2;ratioP2;P2;SDS_P1;SDS_P2;PMS_P1;PMS_P2;Temp;Humidity;BMP_temperature;BMP_pressure;BME280_temperature;BME280_humidity;BME280_pressure;Samples;Min_cycle;Max_cycle;Signal;HPM_P1;HPM_P2
2021/08/21 00:01:01;;;;;;;19.43;8.43;;;;;;;;;;4971757;28;20512;-46
2021/08/21 00:03:27;;;;;;;9.17;7.60;;;;;;;;;;4971626;28;20414;-46
2021/08/21 00:05:53;;;;;;;10.83;7.87;;;;;;;;;;4971820;28;20384;-45
2021/08/21 00:08:18;;;;;;;15.20;7.53;;;;;;;;;;4971385;28;20388;-46
2021/08/21 00:10:44;;;;;;;14.80;9.13;;;;;;;;;;4971588;28;20403;-45
2021/08/21 00:13:10;;;;;;;14.70;8.20;;;;;;;;;;4971607;28;20391;-46
2021/08/21 00:15:36;;;;;;;14.93;8.13;;;;;;;;;;4971826;28;20411;-46
2021/08/21 00:18:02;;;;;;;10.57;7.30;;;;;;;;;;4974004;28;20410;-47
2021/08/21 00:20:28;;;;;;;10.10;7.87;;;;;;;;;;4975389;28;20500;-47
2021/08/21 00:22:54;;;;;;;8.77;7.30;;;;;;;;;;4975583;28;20445;-46
2021/08/21 00:25:20;;;;;;;10.10;8.33;;;;;;;;;;4975646;28;20387;-46
2021/08/21 00:27:46;;;;;;;9.80;9.00;;;;;;;;;;4975745;28;20456;-47
2021/08/21 00:30:12;;;;;;;18.93;8.10;;;;;;;;;;4975357;28;20842;-46
2021/08/21 00:32:39;;;;;;;11.40;8.80;;;;;;;;;;4975988;28;20397;-46
2021/08/21 00:35:05;;;;;;;10.60;8.57;;;;;;;;;;4975287;28;20402;-46
2021/08/21 00:37:31;;;;;;;13.40;8.43;;;;;;;;;;4975175;28;20406;-46
2021/08/21 00:39:57;;;;;;;8.43;7.53;;;;;;;;;;4974966;28;20403;-47
2021/08/21 00:42:23;;;;;;;9.87;8.53;;;;;;;;;;4975306;28;20928;-46
2021/08/21 00:44:49;;;;;;;13.53;8.57;;;;;;;;;;4975111;28;20852;-46
2021/08/21 00:47:19;;;;;;;12.27;7.70;;;;;;;;;;4975136;28;20424;-46
2021/08/21 00:49:49;;;;;;;15.00;9.10;;;;;;;;;;4975185;28;20428;-46
2021/08/21 00:52:17;;;;;;;11.43;9.67;;;;;;;;;;4975137;28;20465;-48
2021/08/21 00:54:43;;;;;;;9.60;8.70;;;;;;;;;;4974998;28;20458;-46
2021/08/21 00:57:11;;;;;;;10.80;8.87;;;;;;;;;;4975153;28;20795;-46
2021/08/21 00:59:38;;;;;;;15.10;9.37;;;;;;;;;;4974720;28;20424;-46
2021/08/21 01:02:04;;;;;;;10.60;9.00;;;;;;;;;;4974322;28;20613;-47
2021/08/21 01:04:31;;;;;;;10.53;8.20;;;;;;;;;;4974185;28;20409;-46
2021/08/21 01:06:57;;;;;;;10.47;8.10;;;;;;;;;;4974448;28;20460;-46
2021/08/21 01:09:23;;;;;;;12.63;8.50;;;;;;;;;;4974863;28;20496;-46
2021/08/21 01:11:49;;;;;;;11.20;9.30;;;;;;;;;;4974491;28;20484;-46
2021/08/21 01:14:15;;;;;;;12.70;9.60;;;;;;;;;;4974801;28;20467;-46
2021/08/21 01:16:41;;;;;;;12.53;9.17;;;;;;;;;;4974634;28;20478;-46
2021/08/21 01:19:08;;;;;;;13.47;10.27;;;;;;;;;;4974290;28;20476;-46
2021/08/21 01:21:34;;;;;;;15.40;11.30;;;;;;;;;;4974545;28;20383;-46
2021/08/21 01:24:00;;;;;;;19.90;12.60;;;;;;;;;;4974452;28;20479;-46
2021/08/21 01:26:26;;;;;;;15.70;11.70;;;;;;;;;;4974241;28;20972;-45
2021/08/21 01:28:52;;;;;;;12.90;11.60;;;;;;;;;;4973859;28;20479;-46
2021/08/21 01:31:18;;;;;;;13.93;10.67;;;;;;;;;;4974256;28;20501;-46
2021/08/21 01:33:44;;;;;;;11.83;10.17;;;;;;;;;;4974318;28;20408;-46
2021/08/21 01:36:10;;;;;;;13.10;9.47;;;;;;;;;;4974175;28;20884;-46
2021/08/21 01:38:36;;;;;;;13.73;11.20;;;;;;;;;;4974130;28;20913;-46
2021/08/21 01:41:01;;;;;;;12.57;10.50;;;;;;;;;;4974360;28;20435;-46
2021/08/21 01:43:28;;;;;;;15.67;11.07;;;;;;;;;;4974173;28;20773;-47
2021/08/21 01:45:53;;;;;;;15.40;11.50;;;;;;;;;;4974050;28;20376;-46
2021/08/21 01:48:19;;;;;;;14.90;10.93;;;;;;;;;;4973742;28;20397;-46
2021/08/21 01:50:46;;;;;;;11.30;10.20;;;;;;;;;;4973851;28;20439;-46
2021/08/21 01:53:16;;;;;;;19.13;10.57;;;;;;;;;;4974065;28;20471;-46
2021/08/21 01:55:45;;;;;;;16.60;11.47;;;;;;;;;;4974056;28;20405;-46
2021/08/21 01:58:19;;;;;;;12.90;10.10;;;;;;;;;;4973770;28;20429;-45
2021/08/21 02:00:45;;;;;;;12.33;9.97;;;;;;;;;;4973707;28;20425;-46
2021/08/21 02:03:13;;;;;;;11.80;10.20;;;;;;;;;;4974065;28;20427;-46
2021/08/21 02:05:39;;;;;;;11.73;9.23;;;;;;;;;;4973830;28;20405;-46
2021/08/21 02:08:05;;;;;;;13.97;9.73;;;;;;;;;;4973560;28;20475;-46
2021/08/21 02:10:31;;;;;;;13.17;10.20;;;;;;;;;;4973596;28;20502;-46
2021/08/21 02:12:57;;;;;;;13.67;10.83;;;;;;;;;;4973468;28;20515;-46
2021/08/21 02:15:23;;;;;;;11.10;9.83;;;;;;;;;;4973565;28;20467;-47
2021/08/21 02:17:50;;;;;;;13.50;10.70;;;;;;;;;;4973691;28;20844;-46
2021/08/21 02:20:16;;;;;;;14.53;9.57;;;;;;;;;;4973474;28;20429;-46
2021/08/21 02:22:43;;;;;;;14.23;9.20;;;;;;;;;;4973761;28;20380;-46
2021/08/21 02:25:11;;;;;;;15.00;10.57;;;;;;;;;;4973650;28;20438;-46
2021/08/21 02:27:39;;;;;;;17.00;10.07;;;;;;;;;;4973492;28;20461;-46
2021/08/21 02:30:05;;;;;;;10.90;9.33;;;;;;;;;;4972898;28;21007;-46
2021/08/21 02:32:31;;;;;;;11.63;10.47;;;;;;;;;;4973466;28;20386;-46
2021/08/21 02:34:57;;;;;;;15.47;10.90;;;;;;;;;;4973213;28;20468;-46
2021/08/21 02:37:23;;;;;;;12.90;10.97;;;;;;;;;;4973208;28;20491;-46
2021/08/21 02:39:49;;;;;;;13.67;11.67;;;;;;;;;;4972134;28;20444;-46
2021/08/21 02:42:16;;;;;;;13.10;11.70;;;;;;;;;;4973169;28;20439;-46
2021/08/21 02:44:42;;;;;;;17.00;12.20;;;;;;;;;;4972983;28;20913;-46
2021/08/21 02:47:08;;;;;;;12.93;11.53;;;;;;;;;;4973200;28;20800;-46
2021/08/21 02:49:34;;;;;;;14.53;12.70;;;;;;;;;;4972561;28;20894;-46
2021/08/21 02:52:00;;;;;;;20.20;11.77;;;;;;;;;;4973249;28;20439;-46
2021/08/21 02:54:26;;;;;;;12.17;10.50;;;;;;;;;;4972910;28;20412;-46
2021/08/21 02:56:52;;;;;;;16.00;11.47;;;;;;;;;;4972811;28;20413;-46
2021/08/21 02:59:18;;;;;;;11.30;10.10;;;;;;;;;;4972353;28;20429;-46
2021/08/21 03:01:44;;;;;;;13.10;10.83;;;;;;;;;;4972989;28;21002;-46
2021/08/21 03:04:10;;;;;;;11.10;10.00;;;;;;;;;;4972694;28;20467;-46
2021/08/21 03:06:36;;;;;;;16.43;10.33;;;;;;;;;;4973023;28;20452;-46
2021/08/21 03:09:03;;;;;;;11.97;10.67;;;;;;;;;;4972194;28;20421;-46
2021/08/21 03:11:29;;;;;;;14.37;10.60;;;;;;;;;;4972411;28;20874;-45
2021/08/21 03:13:55;;;;;;;14.70;11.17;;;;;;;;;;4972455;28;20397;-46
2021/08/21 03:16:21;;;;;;;13.00;10.87;;;;;;;;;;4972397;28;20440;-46
2021/08/21 03:18:47;;;;;;;13.30;10.20;;;;;;;;;;4972205;28;20406;-46
2021/08/21 03:21:15;;;;;;;19.30;10.37;;;;;;;;;;4972273;28;20403;-46
2021/08/21 03:23:41;;;;;;;12.37;10.67;;;;;;;;;;4972286;28;20853;-46
2021/08/21 03:26:07;;;;;;;12.83;10.10;;;;;;;;;;4972062;28;20507;-46
2021/08/21 03:28:33;;;;;;;11.83;10.60;;;;;;;;;;4971999;28;20420;-46
2021/08/21 03:30:59;;;;;;;22.27;12.27;;;;;;;;;;4972104;28;20400;-46
2021/08/21 03:33:25;;;;;;;12.37;10.27;;;;;;;;;;4972177;28;20471;-45
2021/08/21 03:35:51;;;;;;;11.70;10.33;;;;;;;;;;4972193;28;20433;-46
2021/08/21 03:38:17;;;;;;;13.50;9.87;;;;;;;;;;4972042;28;20780;-46
2021/08/21 03:40:43;;;;;;;11.33;9.47;;;;;;;;;;4971868;28;20435;-46
2021/08/21 03:43:09;;;;;;;12.40;8.87;;;;;;;;;;4971975;28;20417;-45
2021/08/21 03:45:36;;;;;;;11.30;9.90;;;;;;;;;;4972009;28;20747;-46
2021/08/21 03:48:02;;;;;;;12.70;9.57;;;;;;;;;;4972078;28;20519;-46
2021/08/21 03:50:29;;;;;;;16.07;11.17;;;;;;;;;;4971578;28;20428;-45
2021/08/21 03:52:55;;;;;;;12.07;9.53;;;;;;;;;;4972089;28;20405;-46
2021/08/21 03:55:21;;;;;;;16.23;10.20;;;;;;;;;;4971825;28;20777;-46
2021/08/21 03:57:47;;;;;;;11.87;9.90;;;;;;;;;;4971900;28;20395;-46
2021/08/21 04:00:13;;;;;;;13.07;9.70;;;;;;;;;;4971707;28;20515;-46
2021/08/21 04:02:39;;;;;;;13.17;9.47;;;;;;;;;;4972110;28;20468;-46
2021/08/21 04:05:05;;;;;;;12.27;10.00;;;;;;;;;;4972392;28;20416;-46
2021/08/21 04:07:31;;;;;;;19.17;12.50;;;;;;;;;;4971941;28;20597;-46
2021/08/21 04:09:57;;;;;;;18.50;11.77;;;;;;;;;;4971560;28;20451;-46
2021/08/21 04:12:23;;;;;;;16.03;10.87;;;;;;;;;;4971855;28;20519;-46
2021/08/21 04:14:49;;;;;;;14.40;11.00;;;;;;;;;;4972054;28;20411;-46
2021/08/21 04:17:15;;;;;;;16.90;9.97;;;;;;;;;;4971882;28;20412;-45
2021/08/21 04:19:41;;;;;;;13.70;9.93;;;;;;;;;;4972151;28;20487;-44
2021/08/21 04:22:07;;;;;;;14.13;9.83;;;;;;;;;;4971885;28;20436;-45
2021/08/21 04:24:33;;;;;;;13.80;10.50;;;;;;;;;;4971776;28;20412;-46
2021/08/21 04:26:59;;;;;;;18.33;11.07;;;;;;;;;;4971675;28;20460;-46
2021/08/21 04:29:25;;;;;;;18.90;11.90;;;;;;;;;;4971531;28;20697;-46
2021/08/21 04:31:50;;;;;;;15.30;12.40;;;;;;;;;;4971624;28;20400;-46
2021/08/21 04:34:16;;;;;;;15.60;11.37;;;;;;;;;;4971955;28;20830;-46
2021/08/21 04:36:42;;;;;;;25.43;11.43;;;;;;;;;;4971484;28;20437;-46
2021/08/21 04:39:08;;;;;;;21.07;12.70;;;;;;;;;;4971327;28;21041;-46
2021/08/21 04:41:34;;;;;;;12.60;11.27;;;;;;;;;;4971621;28;20915;-46
2021/08/21 04:44:00;;;;;;;17.43;13.40;;;;;;;;;;4971555;28;20480;-46
2021/08/21 04:46:26;;;;;;;18.53;11.93;;;;;;;;;;4971322;28;20457;-46
2021/08/21 04:48:52;;;;;;;16.30;11.80;;;;;;;;;;4971087;28;20786;-46
2021/08/21 04:51:18;;;;;;;15.97;12.00;;;;;;;;;;4971503;28;20398;-46
2021/08/21 04:53:44;;;;;;;18.70;13.13;;;;;;;;;;4971311;28;20412;-46
2021/08/21 04:56:10;;;;;;;15.97;13.00;;;;;;;;;;4971444;28;20409;-46
2021/08/21 04:58:36;;;;;;;14.63;12.80;;;;;;;;;;4971331;28;20500;-46
2021/08/21 05:01:02;;;;;;;21.17;14.97;;;;;;;;;;4971282;28;20467;-46
2021/08/21 05:03:28;;;;;;;17.50;15.13;;;;;;;;;;4972458;28;20440;-46
2021/08/21 05:05:54;;;;;;;18.80;14.43;;;;;;;;;;4974890;28;20464;-45
2021/08/21 05:08:20;;;;;;;22.83;15.50;;;;;;;;;;4974415;28;20466;-45
2021/08/21 05:10:46;;;;;;;22.83;15.43;;;;;;;;;;4974612;28;20425;-47
2021/08/21 05:13:12;;;;;;;20.97;15.83;;;;;;;;;;4974611;28;20382;-46
2021/08/21 05:15:40;;;;;;;22.63;15.30;;;;;;;;;;4974864;28;20386;-46
2021/08/21 05:18:07;;;;;;;22.27;15.43;;;;;;;;;;4974486;28;20381;-46
2021/08/21 05:20:53;;;;;;;17.57;13.87;;;;;;;;;;4974433;28;20399;-46
2021/08/21 05:23:19;;;;;;;20.50;13.40;;;;;;;;;;4974760;28;20887;-46
2021/08/21 05:25:46;;;;;;;17.67;13.30;;;;;;;;;;4974353;28;20776;-46
2021/08/21 05:28:13;;;;;;;18.67;14.10;;;;;;;;;;4974300;28;21038;-45
2021/08/21 05:30:39;;;;;;;17.70;14.13;;;;;;;;;;4974116;28;20435;-46
2021/08/21 05:33:12;;;;;;;15.97;13.60;;;;;;;;;;4974457;28;20401;-46
2021/08/21 05:35:38;;;;;;;18.83;13.50;;;;;;;;;;4974203;28;20485;-46
2021/08/21 05:38:04;;;;;;;21.60;14.20;;;;;;;;;;4974294;28;20471;-46
2021/08/21 05:40:31;;;;;;;17.77;14.20;;;;;;;;;;4974004;28;20980;-46
2021/08/21 05:42:57;;;;;;;20.70;14.67;;;;;;;;;;4974294;28;20392;-46
2021/08/21 05:45:23;;;;;;;20.33;14.63;;;;;;;;;;4973964;28;20415;-46
2021/08/21 05:47:50;;;;;;;16.50;13.00;;;;;;;;;;4974025;28;20452;-46
2021/08/21 05:50:18;;;;;;;19.50;14.37;;;;;;;;;;4974082;28;20410;-46
2021/08/21 05:52:44;;;;;;;21.83;17.30;;;;;;;;;;4974647;28;20411;-46
2021/08/21 05:55:10;;;;;;;21.13;14.37;;;;;;;;;;4973908;28;20454;-46
2021/08/21 05:57:36;;;;;;;20.00;14.00;;;;;;;;;;4974043;28;20416;-46
2021/08/21 06:00:05;;;;;;;16.23;13.07;;;;;;;;;;4973490;28;20430;-46
2021/08/21 06:02:31;;;;;;;15.03;12.30;;;;;;;;;;4973798;28;20415;-46
2021/08/21 06:04:57;;;;;;;18.80;14.00;;;;;;;;;;4973804;28;20381;-46
2021/08/21 06:07:23;;;;;;;17.53;14.17;;;;;;;;;;4973643;28;20465;-46
2021/08/21 06:09:49;;;;;;;21.03;15.07;;;;;;;;;;4973436;28;20425;-46
2021/08/21 06:12:15;;;;;;;21.10;15.00;;;;;;;;;;4973520;28;20904;-46
2021/08/21 06:14:41;;;;;;;21.60;14.53;;;;;;;;;;4972508;28;20418;-45
2021/08/21 06:17:08;;;;;;;17.80;13.90;;;;;;;;;;4973461;28;20422;-46
2021/08/21 06:19:34;;;;;;;16.87;13.90;;;;;;;;;;4973377;28;20431;-47
2021/08/21 06:22:00;;;;;;;22.20;14.57;;;;;;;;;;4973746;28;20388;-46
2021/08/21 06:24:26;;;;;;;17.10;13.60;;;;;;;;;;4973835;28;20384;-46
2021/08/21 06:26:52;;;;;;;23.03;14.47;;;;;;;;;;4973592;28;20457;-46
2021/08/21 06:29:18;;;;;;;14.77;11.17;;;;;;;;;;4973345;28;20402;-46
2021/08/21 06:31:44;;;;;;;14.60;11.47;;;;;;;;;;4973116;28;20944;-46
2021/08/21 06:34:10;;;;;;;17.03;12.90;;;;;;;;;;4973427;28;20484;-46
2021/08/21 06:36:36;;;;;;;14.27;12.17;;;;;;;;;;4973252;28;20387;-46
2021/08/21 06:39:02;;;;;;;19.97;13.93;;;;;;;;;;4972991;28;20799;-46
2021/08/21 06:41:28;;;;;;;14.30;12.80;;;;;;;;;;4972941;28;21023;-46
2021/08/21 06:43:54;;;;;;;13.70;10.83;;;;;;;;;;4973128;28;20467;-46
2021/08/21 06:46:20;;;;;;;13.80;10.77;;;;;;;;;;4972813;28;20402;-46
2021/08/21 06:48:46;;;;;;;20.80;10.43;;;;;;;;;;4972847;28;20464;-46
2021/08/21 06:51:12;;;;;;;14.17;10.33;;;;;;;;;;4972877;28;20417;-46
2021/08/21 06:53:40;;;;;;;12.80;11.10;;;;;;;;;;4972765;28;20411;-46
2021/08/21 06:56:06;;;;;;;12.20;10.30;;;;;;;;;;4972910;28;20932;-46
2021/08/21 06:58:32;;;;;;;13.37;9.87;;;;;;;;;;4972360;28;20418;-46
2021/08/21 07:00:58;;;;;;;11.60;10.33;;;;;;;;;;4972586;28;20384;-46
2021/08/21 07:03:24;;;;;;;10.77;9.77;;;;;;;;;;4972820;28;20376;-46
2021/08/21 07:05:50;;;;;;;11.63;10.40;;;;;;;;;;4972339;28;20919;-46
2021/08/21 07:08:16;;;;;;;11.43;10.00;;;;;;;;;;4971693;28;20461;-46
2021/08/21 07:10:42;;;;;;;13.43;9.83;;;;;;;;;;4971905;28;20426;-46
2021/08/21 07:13:08;;;;;;;10.50;9.30;;;;;;;;;;4972058;28;20418;-46
2021/08/21 07:15:34;;;;;;;11.83;10.57;;;;;;;;;;4971839;28;20377;-47
2021/08/21 07:18:00;;;;;;;11.23;9.80;;;;;;;;;;4971749;28;20457;-46
2021/08/21 07:20:26;;;;;;;10.60;9.50;;;;;;;;;;4971613;28;20435;-46
2021/08/21 07:22:52;;;;;;;10.70;9.50;;;;;;;;;;4971864;28;20403;-46
2021/08/21 07:25:18;;;;;;;13.43;10.00;;;;;;;;;;4971712;28;20408;-46
2021/08/21 07:27:44;;;;;;;13.97;9.10;;;;;;;;;;4971454;28;21154;-47
2021/08/21 07:30:10;;;;;;;10.87;9.87;;;;;;;;;;4971215;28;20783;-46
2021/08/21 07:32:36;;;;;;;14.17;10.20;;;;;;;;;;4971831;28;20418;-46
2021/08/21 07:35:03;;;;;;;13.60;9.53;;;;;;;;;;4971414;28;20405;-47
2021/08/21 07:37:30;;;;;;;12.30;9.23;;;;;;;;;;4972015;28;20765;-46
2021/08/21 07:39:56;;;;;;;9.20;8.30;;;;;;;;;;4970174;28;20453;-46
2021/08/21 07:42:25;;;;;;;10.50;9.40;;;;;;;;;;4972311;28;20428;-47
2021/08/21 07:44:51;;;;;;;13.03;8.60;;;;;;;;;;4955296;28;21109;-46
2021/08/21 07:47:17;;;;;;;13.07;10.10;;;;;;;;;;4972457;28;20888;-46
2021/08/21 07:49:45;;;;;;;12.77;8.33;;;;;;;;;;4971588;28;20452;-45
2021/08/21 07:52:11;;;;;;;10.23;8.00;;;;;;;;;;4972152;28;20413;-45
2021/08/21 07:54:37;;;;;;;15.63;8.83;;;;;;;;;;4973035;28;20804;-45
2021/08/21 07:57:03;;;;;;;13.30;9.27;;;;;;;;;;4971303;28;20492;-46
2021/08/21 07:59:29;;;;;;;11.17;8.30;;;;;;;;;;4969813;28;21236;-47
2021/08/21 08:01:56;;;;;;;14.27;8.77;;;;;;;;;;4970318;28;20440;-47
2021/08/21 08:04:22;;;;;;;11.73;7.80;;;;;;;;;;4971107;28;20523;-47
2021/08/21 08:06:48;;;;;;;12.27;7.33;;;;;;;;;;4971586;28;20462;-46
2021/08/21 08:09:14;;;;;;;9.87;8.93;;;;;;;;;;4971650;28;20443;-46
2021/08/21 08:11:40;;;;;;;10.10;7.17;;;;;;;;;;4971565;28;20428;-47
2021/08/21 08:14:06;;;;;;;9.53;7.27;;;;;;;;;;4971974;28;20459;-46
2021/08/21 08:16:32;;;;;;;11.67;8.00;;;;;;;;;;4971917;28;20967;-47
2021/08/21 08:18:58;;;;;;;8.37;7.23;;;;;;;;;;4971816;28;20780;-47
2021/08/21 08:21:24;;;;;;;8.30;7.40;;;;;;;;;;4971966;28;20776;-47
2021/08/21 08:23:51;;;;;;;9.40;7.80;;;;;;;;;;4972153;28;20819;-47
2021/08/21 08:26:17;;;;;;;9.53;7.97;;;;;;;;;;4971786;28;20459;-46
2021/08/21 08:28:43;;;;;;;10.53;7.30;;;;;;;;;;4971872;28;20408;-46
2021/08/21 08:31:10;;;;;;;9.07;6.87;;;;;;;;;;4971739;28;20933;-46
2021/08/21 08:33:36;;;;;;;8.70;7.23;;;;;;;;;;4971971;28;20427;-47
2021/08/21 08:36:02;;;;;;;8.50;7.70;;;;;;;;;;4971856;28;20773;-46
2021/08/21 08:38:28;;;;;;;9.73;6.80;;;;;;;;;;4972776;28;20784;-47
2021/08/21 08:40:54;;;;;;;6.60;6.00;;;;;;;;;;4975342;28;20964;-47
2021/08/21 08:43:22;;;;;;;9.97;6.67;;;;;;;;;;4975596;28;20971;-47
2021/08/21 08:45:48;;;;;;;7.90;5.60;;;;;;;;;;4975594;28;20416;-47
2021/08/21 08:48:14;;;;;;;12.60;6.70;;;;;;;;;;4975054;28;20456;-46
2021/08/21 08:50:41;;;;;;;6.57;5.97;;;;;;;;;;4975028;28;20423;-47
2021/08/21 08:53:07;;;;;;;9.27;7.03;;;;;;;;;;4975175;28;20405;-47
2021/08/21 08:55:33;;;;;;;8.73;6.00;;;;;;;;;;4973849;28;20419;-47
2021/08/21 08:57:59;;;;;;;9.40;6.90;;;;;;;;;;4974948;28;20885;-47
2021/08/21 09:00:26;;;;;;;8.87;5.33;;;;;;;;;;4974684;28;20429;-47
2021/08/21 09:02:56;;;;;;;8.47;5.50;;;;;;;;;;4974878;28;20881;-46
2021/08/21 09:05:23;;;;;;;5.40;5.00;;;;;;;;;;4974959;28;20886;-47
2021/08/21 09:07:51;;;;;;;4.43;3.93;;;;;;;;;;4974713;28;20479;-47
2021/08/21 09:10:21;;;;;;;8.13;5.80;;;;;;;;;;4974630;28;20432;-47
2021/08/21 09:12:48;;;;;;;12.43;6.37;;;;;;;;;;4974683;28;20421;-47
2021/08/21 09:15:18;;;;;;;6.40;5.47;;;;;;;;;;4974877;28;20413;-46
2021/08/21 09:17:58;;;;;;;8.70;6.60;;;;;;;;;;4974635;28;20463;-46
2021/08/21 09:20:24;;;;;;;7.60;5.30;;;;;;;;;;4974293;28;20428;-46
2021/08/21 09:22:50;;;;;;;6.33;5.73;;;;;;;;;;4974717;28;20413;-47
2021/08/21 09:25:27;;;;;;;6.67;5.30;;;;;;;;;;4974486;28;20800;-47
2021/08/21 09:27:53;;;;;;;5.27;4.17;;;;;;;;;;4974518;28;20452;-46
2021/08/21 09:30:19;;;;;;;5.60;3.70;;;;;;;;;;4974144;28;20429;-47
2021/08/21 09:32:46;;;;;;;4.87;4.47;;;;;;;;;;4974439;28;20402;-47
2021/08/21 09:35:13;;;;;;;5.20;3.97;;;;;;;;;;4974302;28;20881;-48
2021/08/21 09:38:05;;;;;;;4.20;3.80;;;;;;;;;;4974387;28;20751;-47
2021/08/21 09:40:36;;;;;;;5.07;4.57;;;;;;;;;;4970606;28;20452;-47
2021/08/21 09:43:03;;;;;;;5.10;4.40;;;;;;;;;;4974399;28;20492;-47
2021/08/21 09:45:29;;;;;;;3.67;3.33;;;;;;;;;;4974123;28;20441;-47
2021/08/21 09:48:03;;;;;;;4.80;4.40;;;;;;;;;;4974217;28;20452;-47
2021/08/21 09:50:34;;;;;;;4.30;4.00;;;;;;;;;;4973589;28;20937;-47
2021/08/21 09:53:01;;;;;;;4.87;4.47;;;;;;;;;;4974202;28;20405;-47
2021/08/21 09:55:29;;;;;;;4.07;3.70;;;;;;;;;;4974038;28;20405;-48
2021/08/21 09:57:59;;;;;;;3.90;3.60;;;;;;;;;;4973887;28;20774;-48
2021/08/21 10:00:25;;;;;;;4.10;3.73;;;;;;;;;;4973589;28;20495;-48
2021/08/21 10:02:51;;;;;;;5.07;3.40;;;;;;;;;;4974055;28;20931;-48
2021/08/21 10:05:18;;;;;;;3.57;3.27;;;;;;;;;;4974000;28;20501;-48
2021/08/21 10:07:48;;;;;;;3.63;3.40;;;;;;;;;;4973965;28;20455;-47
2021/08/21 10:10:16;;;;;;;3.60;3.40;;;;;;;;;;4973679;28;20432;-47
2021/08/21 10:12:45;;;;;;;4.17;3.07;;;;;;;;;;4973970;28;20425;-47
2021/08/21 10:15:12;;;;;;;3.43;2.70;;;;;;;;;;4974017;28;20784;-48
2021/08/21 10:17:39;;;;;;;3.57;2.70;;;;;;;;;;4967549;28;20457;-47
2021/08/21 10:20:05;;;;;;;4.47;3.20;;;;;;;;;;4972229;28;20433;-48
2021/08/21 10:22:31;;;;;;;4.07;3.60;;;;;;;;;;4973837;28;20405;-47
2021/08/21 10:25:04;;;;;;;4.73;3.67;;;;;;;;;;4973409;28;20496;-46
2021/08/21 10:27:30;;;;;;;4.83;3.83;;;;;;;;;;4973205;28;20452;-47
2021/08/21 10:30:02;;;;;;;3.00;2.80;;;;;;;;;;4973042;28;20421;-48
2021/08/21 10:32:29;;;;;;;3.40;3.10;;;;;;;;;;4973310;28;20614;-46
2021/08/21 10:34:56;;;;;;;2.53;2.33;;;;;;;;;;4973342;28;20487;-48
2021/08/21 10:37:32;;;;;;;5.70;3.80;;;;;;;;;;4973052;28;20401;-47
2021/08/21 10:39:58;;;;;;;3.00;2.77;;;;;;;;;;4972919;28;20421;-47
2021/08/21 10:42:33;;;;;;;3.23;2.93;;;;;;;;;;4973071;28;20404;-47
2021/08/21 10:45:00;;;;;;;3.10;2.90;;;;;;;;;;4973262;28;20409;-47
2021/08/21 10:47:33;;;;;;;3.50;3.20;;;;;;;;;;4973103;28;20812;-47
2021/08/21 10:50:21;;;;;;;5.33;3.63;;;;;;;;;;4972561;28;20519;-47
2021/08/21 10:53:20;;;;;;;4.90;4.10;;;;;;;;;;4972757;28;20418;-47
2021/08/21 10:55:46;;;;;;;3.70;3.30;;;;;;;;;;4930052;28;20420;-48
2021/08/21 10:58:19;;;;;;;3.63;3.33;;;;;;;;;;4972702;28;20769;-47
2021/08/21 11:00:48;;;;;;;5.40;3.23;;;;;;;;;;4972361;28;20437;-47
2021/08/21 11:03:15;;;;;;;10.03;7.80;;;;;;;;;;4972714;28;20405;-47
2021/08/21 11:05:56;;;;;;;6.03;3.90;;;;;;;;;;4972759;28;20457;-47
2021/08/21 11:08:27;;;;;;;4.53;3.40;;;;;;;;;;4972433;28;20829;-46
2021/08/21 11:11:08;;;;;;;3.53;3.23;;;;;;;;;;4972355;28;20421;-47
2021/08/21 11:14:11;;;;;;;6.60;3.40;;;;;;;;;;4972420;28;20904;-47
2021/08/21 11:16:53;;;;;;;3.53;3.33;;;;;;;;;;4972643;28;20485;-48
2021/08/21 11:19:25;;;;;;;4.47;3.10;;;;;;;;;;4972017;28;20412;-46
2021/08/21 11:21:52;;;;;;;3.53;3.13;;;;;;;;;;4972504;28;20400;-47
2021/08/21 11:24:24;;;;;;;3.43;3.13;;;;;;;;;;4972377;28;20401;-47
2021/08/21 11:26:50;;;;;;;4.57;3.43;;;;;;;;;;4972309;28;20444;-47
2021/08/21 11:29:16;;;;;;;4.33;3.40;;;;;;;;;;4972059;28;20917;-47
2021/08/21 11:31:52;;;;;;;4.27;3.13;;;;;;;;;;4972269;28;20397;-46
2021/08/21 11:34:19;;;;;;;2.50;2.30;;;;;;;;;;4972318;28;20396;-47
2021/08/21 11:36:46;;;;;;;3.80;2.83;;;;;;;;;;4972215;28;20404;-47
2021/08/21 11:39:12;;;;;;;3.80;3.50;;;;;;;;;;4972339;28;20424;-47
2021/08/21 11:41:38;;;;;;;9.23;8.20;;;;;;;;;;4971949;28;20513;-47
2021/08/21 11:44:05;;;;;;;3.33;3.13;;;;;;;;;;4971602;28;20901;-47
2021/08/21 11:46:31;;;;;;;4.20;3.80;;;;;;;;;;4971510;28;20401;-46
2021/08/21 11:49:09;;;;;;;5.67;4.30;;;;;;;;;;4971263;28;20429;-46
2021/08/21 11:51:38;;;;;;;3.57;3.27;;;;;;;;;;4971942;28;20412;-47
2021/08/21 11:54:05;;;;;;;3.37;3.07;;;;;;;;;;4972214;28;20404;-47
2021/08/21 11:56:31;;;;;;;3.00;2.80;;;;;;;;;;4972212;28;20402;-47
2021/08/21 11:59:07;;;;;;;3.13;2.83;;;;;;;;;;4972064;28;20424;-47
2021/08/21 12:01:36;;;;;;;4.90;4.40;;;;;;;;;;4955251;28;20420;-47
2021/08/21 12:06:32;;;;;;;4.30;3.20;;;;;;;;;;4971853;28;20409;-47
2021/08/21 12:09:12;;;;;;;5.27;4.20;;;;;;;;;;4954517;28;20480;-46
2021/08/21 12:11:39;;;;;;;3.20;3.00;;;;;;;;;;4954517;28;20576;-47
2021/08/21 12:14:05;;;;;;;3.83;3.20;;;;;;;;;;4973886;28;20752;-47
2021/08/21 12:16:32;;;;;;;3.20;3.00;;;;;;;;;;4975243;28;20492;-48
2021/08/21 12:18:58;;;;;;;3.97;3.27;;;;;;;;;;4975573;28;20421;-47
2021/08/21 12:21:24;;;;;;;3.00;2.80;;;;;;;;;;4975103;28;20472;-47
2021/08/21 12:23:52;;;;;;;3.07;2.83;;;;;;;;;;4975640;28;20479;-46
2021/08/21 12:26:34;;;;;;;3.20;2.93;;;;;;;;;;4974739;28;20427;-47
2021/08/21 12:29:00;;;;;;;3.60;3.23;;;;;;;;;;4975349;28;20435;-47
2021/08/21 12:31:39;;;;;;;3.00;2.80;;;;;;;;;;4975455;28;20829;-47
2021/08/21 12:34:07;;;;;;;3.90;3.37;;;;;;;;;;4975452;28;20459;-47
2021/08/21 12:36:40;;;;;;;2.90;2.70;;;;;;;;;;4975350;28;20410;-46
2021/08/21 12:39:06;;;;;;;3.10;2.80;;;;;;;;;;4975371;28;20432;-47
2021/08/21 12:41:33;;;;;;;3.13;2.83;;;;;;;;;;4975456;28;20401;-47
2021/08/21 12:44:04;;;;;;;2.80;2.50;;;;;;;;;;4975330;28;20405;-46
2021/08/21 12:46:30;;;;;;;5.10;3.10;;;;;;;;;;4975122;28;20405;-47
2021/08/21 12:49:06;;;;;;;3.77;2.80;;;;;;;;;;4974830;28;20503;-47
2021/08/21 12:51:36;;;;;;;2.90;2.70;;;;;;;;;;4975033;28;20451;-47
2021/08/21 12:54:04;;;;;;;3.53;2.80;;;;;;;;;;4975015;28;20397;-46
2021/08/21 12:56:29;;;;;;;4.33;3.10;;;;;;;;;;4975003;28;20411;-47
2021/08/21 12:59:12;;;;;;;3.20;2.47;;;;;;;;;;4974750;28;20795;-47
2021/08/21 13:01:38;;;;;;;2.77;2.57;;;;;;;;;;4974972;28;20408;-48
2021/08/21 13:04:08;;;;;;;2.63;2.43;;;;;;;;;;4974973;28;20405;-48
2021/08/21 13:06:34;;;;;;;2.60;2.40;;;;;;;;;;4975096;28;20459;-47
2021/08/21 13:09:00;;;;;;;2.73;2.53;;;;;;;;;;4974584;28;20830;-48
2021/08/21 13:11:26;;;;;;;2.17;2.07;;;;;;;;;;4974617;28;20420;-48
2021/08/21 13:13:52;;;;;;;2.97;2.60;;;;;;;;;;4974564;28;20452;-48
2021/08/21 13:16:18;;;;;;;2.33;2.13;;;;;;;;;;4974772;28;20397;-48
2021/08/21 13:18:44;;;;;;;2.43;2.23;;;;;;;;;;4974201;28;20397;-48
2021/08/21 13:21:10;;;;;;;2.30;2.10;;;;;;;;;;4974565;28;20174;-47
2021/08/21 13:23:36;;;;;;;2.47;2.37;;;;;;;;;;4974059;28;20173;-47
2021/08/21 13:26:02;;;;;;;2.33;2.20;;;;;;;;;;4974559;28;20403;-47
2021/08/21 13:28:29;;;;;;;3.40;2.50;;;;;;;;;;4974175;28;20248;-47
2021/08/21 13:30:55;;;;;;;3.93;2.77;;;;;;;;;;4974214;28;20932;-47
2021/08/21 13:33:21;;;;;;;3.27;2.97;;;;;;;;;;4974307;28;20397;-47
2021/08/21 13:35:47;;;;;;;3.17;2.30;;;;;;;;;;4974325;28;20393;-46
2021/08/21 13:38:14;;;;;;;2.07;1.97;;;;;;;;;;4974096;28;20397;-48
2021/08/21 13:40:40;;;;;;;4.10;2.40;;;;;;;;;;4974038;28;20625;-47
2021/08/21 13:43:06;;;;;;;2.67;2.13;;;;;;;;;;4974120;28;20829;-47
2021/08/21 13:45:33;;;;;;;2.50;2.37;;;;;;;;;;4974103;28;20433;-47
2021/08/21 13:48:00;;;;;;;2.47;2.37;;;;;;;;;;4974255;28;20463;-47
2021/08/21 13:50:27;;;;;;;2.63;2.53;;;;;;;;;;4973844;28;20429;-47
2021/08/21 13:52:53;;;;;;;4.00;2.10;;;;;;;;;;4974283;28;20779;-47
2021/08/21 13:55:18;;;;;;;2.40;2.20;;;;;;;;;;4974263;28;20477;-47
2021/08/21 13:57:46;;;;;;;3.03;2.50;;;;;;;;;;4974052;28;20420;-46
2021/08/21 14:00:12;;;;;;;2.43;2.23;;;;;;;;;;4973862;28;20425;-47
2021/08/21 14:02:41;;;;;;;2.23;2.13;;;;;;;;;;4974174;28;20791;-46
2021/08/21 14:05:08;;;;;;;2.50;2.40;;;;;;;;;;4973845;28;20416;-46
2021/08/21 14:07:34;;;;;;;2.90;2.70;;;;;;;;;;4974043;28;20452;-47
2021/08/21 14:10:00;;;;;;;2.80;2.63;;;;;;;;;;4973501;28;21006;-47
2021/08/21 14:12:26;;;;;;;2.60;2.20;;;;;;;;;;4973959;28;20858;-46
2021/08/21 14:14:54;;;;;;;2.67;2.47;;;;;;;;;;4973811;28;20431;-47
2021/08/21 14:17:20;;;;;;;2.67;2.40;;;;;;;;;;4974031;28;20417;-47
2021/08/21 14:19:46;;;;;;;2.80;2.60;;;;;;;;;;4973262;28;20813;-47
2021/08/21 14:22:12;;;;;;;2.20;2.10;;;;;;;;;;4973701;28;20455;-46
2021/08/21 14:24:38;;;;;;;3.00;2.80;;;;;;;;;;4973522;28;20773;-49
2021/08/21 14:27:04;;;;;;;2.50;2.27;;;;;;;;;;4973022;28;20464;-47
2021/08/21 14:29:30;;;;;;;2.80;2.60;;;;;;;;;;4973382;28;20472;-47
2021/08/21 14:31:56;;;;;;;6.23;2.50;;;;;;;;;;4973564;28;20401;-46
2021/08/21 14:34:22;;;;;;;2.80;2.60;;;;;;;;;;4973488;28;20405;-47